Time;durP1;ratioP1;P1;durP2;ratioP2;P2;SDS_P1;SDS_P2;PMS_P1;PMS_P2;Temp;Humidity;BMP_temperature;BMP_pressure;BME280_temperature;BME280_humidity;BME280_pressure;Samples;Min_cycle;Max_cycle;Signal;HPM_P1;HPM_P2
2021/08/09 00:00:28;;;;;;;8.18;4.43;;;;;;;;;;5013236;28;20655;-73
2021/08/09 00:02:53;;;;;;;7.78;3.85;;;;;;;;;;5025541;28;20225;-74
2021/08/09 00:05:18;;;;;;;10.02;3.78;;;;;;;;;;5008894;28;20208;-74
2021/08/09 00:07:44;;;;;;;9.25;3.75;;;;;;;;;;5019944;28;20201;-74
2021/08/09 00:10:09;;;;;;;8.00;3.50;;;;;;;;;;5006429;28;21554;-73
2021/08/09 00:12:35;;;;;;;8.80;4.00;;;;;;;;;;5023271;28;20189;-70
2021/08/09 00:15:01;;;;;;;11.38;3.85;;;;;;;;;;5017914;28;20178;-73
2021/08/09 00:17:26;;;;;;;9.10;3.45;;;;;;;;;;5016676;28;20550;-73
2021/08/09 00:19:51;;;;;;;11.07;4.50;;;;;;;;;;5020412;28;20190;-72
2021/08/09 00:22:17;;;;;;;13.15;4.03;;;;;;;;;;5016747;28;20206;-71
2021/08/09 00:24:42;;;;;;;11.70;3.70;;;;;;;;;;5025191;28;20194;-72
2021/08/09 00:27:08;;;;;;;9.77;3.90;;;;;;;;;;5014710;28;20190;-73
2021/08/09 00:29:33;;;;;;;7.95;3.50;;;;;;;;;;5017320;28;20602;-72
2021/08/09 00:31:59;;;;;;;10.82;3.85;;;;;;;;;;5052894;28;20185;-73
2021/08/09 00:34:24;;;;;;;14.43;4.18;;;;;;;;;;5021163;28;20186;-72
2021/08/09 00:36:49;;;;;;;16.38;3.88;;;;;;;;;;5018126;28;20208;-73
2021/08/09 00:39:15;;;;;;;13.05;3.92;;;;;;;;;;5024163;28;20211;-70
2021/08/09 00:41:40;;;;;;;10.90;4.15;;;;;;;;;;5013883;28;20248;-73
2021/08/09 00:44:05;;;;;;;11.20;3.45;;;;;;;;;;5020152;28;20190;-73
2021/08/09 00:46:31;;;;;;;10.68;4.10;;;;;;;;;;5038439;28;20630;-73
2021/08/09 00:48:57;;;;;;;11.45;3.97;;;;;;;;;;5016516;28;20288;-73
2021/08/09 00:51:22;;;;;;;9.98;3.65;;;;;;;;;;5022587;28;20196;-73
2021/08/09 00:53:48;;;;;;;10.27;3.75;;;;;;;;;;5014407;28;20194;-73
2021/08/09 00:56:13;;;;;;;8.52;3.63;;;;;;;;;;5020779;28;20609;-72
2021/08/09 00:58:39;;;;;;;9.85;3.00;;;;;;;;;;5019917;28;20206;-74
2021/08/09 01:01:05;;;;;;;10.57;3.60;;;;;;;;;;5029007;28;20236;-74
2021/08/09 01:03:30;;;;;;;11.85;3.80;;;;;;;;;;5019726;28;20209;-73
2021/08/09 01:05:56;;;;;;;9.38;3.50;;;;;;;;;;5024654;28;20186;-73
2021/08/09 01:08:59;;;;;;;8.52;3.40;;;;;;;;;;5014987;28;20194;-72
2021/08/09 01:11:29;;;;;;;12.95;4.45;;;;;;;;;;5024933;28;20186;-73
2021/08/09 01:14:12;;;;;;;8.98;3.95;;;;;;;;;;5018760;28;20646;-73
2021/08/09 01:16:40;;;;;;;7.57;3.67;;;;;;;;;;5027498;28;20190;-73
2021/08/09 01:19:31;;;;;;;9.13;3.95;;;;;;;;;;5016411;28;20706;-73
2021/08/09 01:22:08;;;;;;;8.60;3.95;;;;;;;;;;5031655;28;20198;-73
2021/08/09 01:24:43;;;;;;;9.48;4.15;;;;;;;;;;5032135;28;20190;-74
2021/08/09 01:27:26;;;;;;;13.73;4.78;;;;;;;;;;5028798;28;20725;-74
2021/08/09 01:29:53;;;;;;;15.63;4.63;;;;;;;;;;5018686;28;20193;-73
2021/08/09 01:32:19;;;;;;;9.77;4.50;;;;;;;;;;5019414;28;20214;-74
2021/08/09 01:34:45;;;;;;;9.77;3.85;;;;;;;;;;5016766;28;20194;-73
2021/08/09 01:37:12;;;;;;;15.93;5.43;;;;;;;;;;5025332;28;20186;-74
2021/08/09 01:39:38;;;;;;;12.43;4.80;;;;;;;;;;5017466;28;21414;-73
2021/08/09 01:42:04;;;;;;;10.75;4.68;;;;;;;;;;5026593;28;20549;-73
2021/08/09 01:44:30;;;;;;;15.95;5.35;;;;;;;;;;5023442;28;20201;-73
2021/08/09 01:46:55;;;;;;;12.32;5.28;;;;;;;;;;5017839;28;20268;-74
2021/08/09 01:49:21;;;;;;;13.77;5.07;;;;;;;;;;5022343;28;20221;-74
2021/08/09 01:51:47;;;;;;;16.42;5.13;;;;;;;;;;5017793;28;20543;-74
2021/08/09 01:54:13;;;;;;;10.18;4.25;;;;;;;;;;5027219;28;20186;-73
2021/08/09 01:56:40;;;;;;;12.95;4.60;;;;;;;;;;5017525;28;20203;-72
2021/08/09 01:59:06;;;;;;;12.60;4.57;;;;;;;;;;5029925;28;20201;-73
2021/08/09 02:01:32;;;;;;;12.57;4.90;;;;;;;;;;5015685;28;20206;-74
2021/08/09 02:03:57;;;;;;;16.30;4.38;;;;;;;;;;5026257;28;20665;-73
2021/08/09 02:06:23;;;;;;;13.23;4.72;;;;;;;;;;5016198;28;20191;-73
2021/08/09 02:08:48;;;;;;;10.43;4.55;;;;;;;;;;5031011;28;20190;-73
2021/08/09 02:11:31;;;;;;;9.35;4.00;;;;;;;;;;5008682;28;20276;-73
2021/08/09 02:14:02;;;;;;;12.35;4.85;;;;;;;;;;5030510;28;20262;-73
2021/08/09 02:16:37;;;;;;;11.05;4.95;;;;;;;;;;5016269;28;20199;-73
2021/08/09 02:19:10;;;;;;;10.50;5.30;;;;;;;;;;5027572;28;20186;-73
2021/08/09 02:21:55;;;;;;;13.93;4.85;;;;;;;;;;5020050;28;20216;-73
2021/08/09 02:24:29;;;;;;;17.23;6.07;;;;;;;;;;5026067;28;20189;-72
2021/08/09 02:26:59;;;;;;;11.13;5.13;;;;;;;;;;5017356;28;20600;-73
2021/08/09 02:29:31;;;;;;;14.98;5.40;;;;;;;;;;5030022;28;20170;-73
2021/08/09 02:31:57;;;;;;;10.77;5.97;;;;;;;;;;5022761;28;20190;-73
2021/08/09 02:34:26;;;;;;;12.90;5.93;;;;;;;;;;5021542;28;20547;-73
2021/08/09 02:36:52;;;;;;;10.73;5.40;;;;;;;;;;5021790;28;20193;-73
2021/08/09 02:39:18;;;;;;;13.80;5.38;;;;;;;;;;5020254;28;20202;-73
2021/08/09 02:41:43;;;;;;;11.25;5.90;;;;;;;;;;5038635;28;20202;-73
2021/08/09 02:44:11;;;;;;;11.80;5.45;;;;;;;;;;5021004;28;20197;-73
2021/08/09 02:46:38;;;;;;;12.38;4.97;;;;;;;;;;5025008;28;20282;-74
2021/08/09 02:49:04;;;;;;;13.40;5.53;;;;;;;;;;5021958;28;20244;-71
2021/08/09 02:51:32;;;;;;;10.88;4.75;;;;;;;;;;5019278;28;20183;-73
2021/08/09 02:53:58;;;;;;;13.60;5.60;;;;;;;;;;5024171;28;20186;-73
2021/08/09 02:56:24;;;;;;;13.05;5.10;;;;;;;;;;5021223;28;20233;-73
2021/08/09 02:58:53;;;;;;;7.72;4.38;;;;;;;;;;5015773;28;20237;-74
2021/08/09 03:01:19;;;;;;;16.70;5.68;;;;;;;;;;5036600;28;20284;-71
2021/08/09 03:03:48;;;;;;;10.05;5.13;;;;;;;;;;5024291;28;20720;-73
2021/08/09 03:06:14;;;;;;;11.25;4.85;;;;;;;;;;5017089;28;20240;-73
2021/08/09 03:08:40;;;;;;;17.65;5.53;;;;;;;;;;5031046;28;20189;-73
2021/08/09 03:11:07;;;;;;;12.55;4.95;;;;;;;;;;5017479;28;20661;-70
2021/08/09 03:13:32;;;;;;;11.95;5.13;;;;;;;;;;5024315;28;20186;-73
2021/08/09 03:15:58;;;;;;;11.82;4.93;;;;;;;;;;5015975;28;20203;-73
2021/08/09 03:18:23;;;;;;;10.80;4.57;;;;;;;;;;5024007;28;20205;-73
2021/08/09 03:20:48;;;;;;;11.80;4.68;;;;;;;;;;5014796;28;20576;-72
2021/08/09 03:23:14;;;;;;;17.23;4.88;;;;;;;;;;5021741;28;20182;-72
2021/08/09 03:25:39;;;;;;;13.27;4.32;;;;;;;;;;5018510;28;20543;-73
2021/08/09 03:28:06;;;;;;;13.35;4.57;;;;;;;;;;5025892;28;20623;-72
2021/08/09 03:30:32;;;;;;;14.18;5.30;;;;;;;;;;5014091;28;20194;-72
2021/08/09 03:32:57;;;;;;;12.55;4.50;;;;;;;;;;5026912;28;20199;-72
2021/08/09 03:35:22;;;;;;;10.00;5.20;;;;;;;;;;5022478;28;20609;-73
2021/08/09 03:37:48;;;;;;;13.02;4.72;;;;;;;;;;5018070;28;20194;-73
2021/08/09 03:40:14;;;;;;;10.25;4.60;;;;;;;;;;5019772;28;20208;-73
2021/08/09 03:42:39;;;;;;;11.32;4.82;;;;;;;;;;5016261;28;20221;-73
2021/08/09 03:45:06;;;;;;;13.02;5.63;;;;;;;;;;5024450;28;20260;-73
2021/08/09 03:47:31;;;;;;;11.55;4.47;;;;;;;;;;5007995;28;20207;-73
2021/08/09 03:49:56;;;;;;;15.82;4.95;;;;;;;;;;5029696;28;20182;-73
2021/08/09 03:52:22;;;;;;;13.50;4.80;;;;;;;;;;5018138;28;20656;-72
2021/08/09 03:54:47;;;;;;;13.55;4.50;;;;;;;;;;5023193;28;20194;-71
2021/08/09 03:57:12;;;;;;;10.57;4.38;;;;;;;;;;5018130;28;20198;-72
2021/08/09 03:59:38;;;;;;;13.00;3.92;;;;;;;;;;5020519;28;20233;-73
2021/08/09 04:02:03;;;;;;;14.13;4.35;;;;;;;;;;5017021;28;20217;-72
2021/08/09 04:04:28;;;;;;;10.60;4.38;;;;;;;;;;5023921;28;20199;-72
2021/08/09 04:06:54;;;;;;;12.85;4.43;;;;;;;;;;5024058;28;20240;-73
2021/08/09 04:09:19;;;;;;;9.20;4.00;;;;;;;;;;5019155;28;20264;-72
2021/08/09 04:11:44;;;;;;;10.05;4.35;;;;;;;;;;5028174;28;20186;-72
2021/08/09 04:14:10;;;;;;;8.00;4.10;;;;;;;;;;5012179;28;20196;-74
2021/08/09 04:16:35;;;;;;;14.57;4.57;;;;;;;;;;5026392;28;20200;-74
2021/08/09 04:19:00;;;;;;;11.52;4.50;;;;;;;;;;5012990;28;20284;-73
2021/08/09 04:21:26;;;;;;;12.57;3.90;;;;;;;;;;5022078;28;20206;-72
2021/08/09 04:23:52;;;;;;;11.05;4.43;;;;;;;;;;5018866;28;20209;-73
2021/08/09 04:26:19;;;;;;;13.30;4.20;;;;;;;;;;5020532;28;20186;-74
2021/08/09 04:28:44;;;;;;;16.13;4.40;;;;;;;;;;5013528;28;20199;-74
2021/08/09 04:31:10;;;;;;;13.55;4.07;;;;;;;;;;5018977;28;20185;-73
2021/08/09 04:33:46;;;;;;;13.30;4.10;;;;;;;;;;5019474;28;20244;-73
2021/08/09 04:36:11;;;;;;;11.90;3.58;;;;;;;;;;5029672;28;20255;-73
2021/08/09 04:38:37;;;;;;;16.85;5.05;;;;;;;;;;5021583;28;20198;-73
2021/08/09 04:41:06;;;;;;;12.15;4.25;;;;;;;;;;5020826;28;20214;-74
2021/08/09 04:43:32;;;;;;;9.13;3.97;;;;;;;;;;5029179;28;20189;-73
2021/08/09 04:45:57;;;;;;;12.75;4.30;;;;;;;;;;5019084;28;20544;-72
2021/08/09 04:48:23;;;;;;;8.98;3.92;;;;;;;;;;5032821;28;20232;-73
2021/08/09 04:50:48;;;;;;;15.30;4.15;;;;;;;;;;5016076;28;20197;-74
2021/08/09 04:53:13;;;;;;;11.40;4.43;;;;;;;;;;5029811;28;20174;-73
2021/08/09 04:55:39;;;;;;;13.85;4.78;;;;;;;;;;5018121;28;20198;-73
2021/08/09 04:58:05;;;;;;;9.43;4.55;;;;;;;;;;5027183;28;20182;-73
2021/08/09 05:00:30;;;;;;;15.05;4.60;;;;;;;;;;5013774;28;20636;-73
2021/08/09 05:02:55;;;;;;;9.13;4.03;;;;;;;;;;5025401;28;20190;-73
2021/08/09 05:05:21;;;;;;;15.70;4.45;;;;;;;;;;5021369;28;20194;-73
2021/08/09 05:07:46;;;;;;;17.35;4.25;;;;;;;;;;5025327;28;20208;-74
2021/08/09 05:10:11;;;;;;;13.55;4.45;;;;;;;;;;5025158;28;20182;-73
2021/08/09 05:12:37;;;;;;;15.63;4.30;;;;;;;;;;5021471;28;20672;-74
2021/08/09 05:15:03;;;;;;;14.38;4.50;;;;;;;;;;5027096;28;20679;-73
2021/08/09 05:17:28;;;;;;;15.82;4.10;;;;;;;;;;5021879;28;20186;-73
2021/08/09 05:19:54;;;;;;;11.50;3.83;;;;;;;;;;5024094;28;20201;-73
2021/08/09 05:22:19;;;;;;;10.35;4.13;;;;;;;;;;5021708;28;20202;-74
2021/08/09 05:24:45;;;;;;;13.25;4.30;;;;;;;;;;5025630;28;20266;-73
2021/08/09 05:27:11;;;;;;;12.18;4.57;;;;;;;;;;5016137;28;20197;-73
2021/08/09 05:29:36;;;;;;;11.90;4.00;;;;;;;;;;5021801;28;20199;-73
2021/08/09 05:32:01;;;;;;;12.48;3.90;;;;;;;;;;5014933;28;20205;-73
2021/08/09 05:34:27;;;;;;;10.40;4.50;;;;;;;;;;5024479;28;20197;-72
2021/08/09 05:36:52;;;;;;;10.43;3.63;;;;;;;;;;5019317;28;20268;-73
2021/08/09 05:39:18;;;;;;;11.20;4.22;;;;;;;;;;5023077;28;20254;-72
2021/08/09 05:41:43;;;;;;;15.10;4.35;;;;;;;;;;5023922;28;20577;-73
2021/08/09 05:44:08;;;;;;;9.32;3.58;;;;;;;;;;5018215;28;20201;-73
2021/08/09 05:46:34;;;;;;;13.40;4.15;;;;;;;;;;5024890;28;20174;-72
2021/08/09 05:48:59;;;;;;;8.45;3.85;;;;;;;;;;5018940;28;20193;-73
2021/08/09 05:51:24;;;;;;;13.77;4.10;;;;;;;;;;5027040;28;20206;-73
2021/08/09 05:53:50;;;;;;;9.60;4.00;;;;;;;;;;5018534;28;20282;-73
2021/08/09 05:56:15;;;;;;;10.13;3.75;;;;;;;;;;5022754;28;20202;-75
2021/08/09 05:58:40;;;;;;;13.50;4.65;;;;;;;;;;5032614;28;20205;-69
2021/08/09 06:01:06;;;;;;;14.40;4.60;;;;;;;;;;5019590;28;20265;-73
2021/08/09 06:03:31;;;;;;;9.07;3.80;;;;;;;;;;5014395;28;20522;-73
2021/08/09 06:05:56;;;;;;;10.98;3.40;;;;;;;;;;5019328;28;20902;-74
2021/08/09 06:08:22;;;;;;;12.38;3.67;;;;;;;;;;5011758;28;20186;-73
2021/08/09 06:10:47;;;;;;;10.73;3.83;;;;;;;;;;5021113;28;20266;-73
2021/08/09 06:13:13;;;;;;;12.40;4.47;;;;;;;;;;5017586;28;20633;-73
2021/08/09 06:15:39;;;;;;;15.20;4.07;;;;;;;;;;5015226;28;20190;-70
2021/08/09 06:18:04;;;;;;;14.00;3.70;;;;;;;;;;5022531;28;20236;-71
2021/08/09 06:20:30;;;;;;;9.50;3.63;;;;;;;;;;5010759;28;20236;-71
2021/08/09 06:22:57;;;;;;;9.90;3.53;;;;;;;;;;5017465;28;20217;-71
2021/08/09 06:25:22;;;;;;;13.25;3.72;;;;;;;;;;5012342;28;20295;-70
2021/08/09 06:27:49;;;;;;;14.10;3.72;;;;;;;;;;5014265;28;20281;-71
2021/08/09 06:30:15;;;;;;;10.77;3.42;;;;;;;;;;5013005;28;20191;-71
2021/08/09 06:32:40;;;;;;;10.95;3.22;;;;;;;;;;5019046;28;20184;-71
2021/08/09 06:35:06;;;;;;;13.80;3.10;;;;;;;;;;5012439;28;20231;-72
2021/08/09 06:37:32;;;;;;;8.35;4.00;;;;;;;;;;5019456;28;20222;-71
2021/08/09 06:39:58;;;;;;;12.05;3.45;;;;;;;;;;5011800;28;20758;-73
2021/08/09 06:42:23;;;;;;;9.52;2.92;;;;;;;;;;5015712;28;20238;-75
2021/08/09 06:44:48;;;;;;;11.80;3.03;;;;;;;;;;5019647;28;20210;-71
2021/08/09 06:47:14;;;;;;;7.05;3.08;;;;;;;;;;5011986;28;20187;-72
2021/08/09 06:49:39;;;;;;;12.93;3.58;;;;;;;;;;5018202;28;20187;-73
2021/08/09 06:52:05;;;;;;;17.05;3.67;;;;;;;;;;5003672;28;20186;-72
2021/08/09 06:54:31;;;;;;;14.98;3.25;;;;;;;;;;5019506;28;20182;-73
2021/08/09 06:56:56;;;;;;;13.63;3.00;;;;;;;;;;5008839;28;20691;-71
2021/08/09 06:59:21;;;;;;;12.75;3.20;;;;;;;;;;5015079;28;20326;-72
2021/08/09 07:01:47;;;;;;;11.07;2.90;;;;;;;;;;5007647;28;20217;-73
2021/08/09 07:04:12;;;;;;;14.07;3.33;;;;;;;;;;5019838;28;20182;-71
2021/08/09 07:06:38;;;;;;;6.70;2.47;;;;;;;;;;4314433;28;10000757;-72
2021/08/09 07:09:03;;;;;;;11.25;2.97;;;;;;;;;;5014778;28;20642;-72
2021/08/09 07:11:29;;;;;;;8.10;2.58;;;;;;;;;;5020118;28;20240;-72
2021/08/09 07:13:55;;;;;;;9.82;2.70;;;;;;;;;;5015046;28;20550;-72
2021/08/09 07:16:24;;;;;;;15.93;3.55;;;;;;;;;;5021651;28;20272;-72
2021/08/09 07:18:49;;;;;;;14.07;2.75;;;;;;;;;;5017055;28;20538;-73
2021/08/09 07:21:14;;;;;;;11.57;2.97;;;;;;;;;;5022413;28;20210;-74
2021/08/09 07:23:40;;;;;;;8.02;2.58;;;;;;;;;;5017152;28;20190;-71
2021/08/09 07:26:05;;;;;;;9.48;2.53;;;;;;;;;;5023203;28;20201;-72
2021/08/09 07:28:32;;;;;;;10.23;2.97;;;;;;;;;;5019357;28;20186;-71
2021/08/09 07:30:57;;;;;;;12.18;2.50;;;;;;;;;;5023014;28;20197;-73
2021/08/09 07:33:23;;;;;;;9.35;2.83;;;;;;;;;;5015669;28;20194;-72
2021/08/09 07:35:48;;;;;;;10.60;2.65;;;;;;;;;;5022294;28;20261;-72
2021/08/09 07:38:13;;;;;;;13.05;3.35;;;;;;;;;;5015065;28;20584;-72
2021/08/09 07:40:39;;;;;;;11.35;2.80;;;;;;;;;;5020492;28;20252;-73
2021/08/09 07:43:05;;;;;;;13.30;2.88;;;;;;;;;;5030362;28;20177;-72
2021/08/09 07:45:30;;;;;;;12.50;3.03;;;;;;;;;;5012420;28;20545;-72
2021/08/09 07:47:57;;;;;;;9.77;2.83;;;;;;;;;;5024370;28;20518;-72
2021/08/09 07:50:22;;;;;;;8.98;2.70;;;;;;;;;;5014445;28;20201;-73
2021/08/09 07:52:48;;;;;;;8.73;2.50;;;;;;;;;;5026371;28;20182;-71
2021/08/09 07:55:14;;;;;;;9.70;3.00;;;;;;;;;;5013018;28;20194;-72
2021/08/09 07:57:39;;;;;;;14.90;3.10;;;;;;;;;;5021383;28;20535;-71
2021/08/09 08:00:05;;;;;;;10.30;2.72;;;;;;;;;;5013416;28;20320;-73
2021/08/09 08:02:31;;;;;;;10.45;3.65;;;;;;;;;;5024195;28;20193;-71
2021/08/09 08:04:56;;;;;;;8.55;2.88;;;;;;;;;;5012323;28;20252;-73
2021/08/09 08:07:22;;;;;;;7.43;2.78;;;;;;;;;;5020526;28;20179;-71
2021/08/09 08:09:50;;;;;;;12.48;2.67;;;;;;;;;;5012333;28;28939;-73
2021/08/09 08:12:16;;;;;;;8.65;2.83;;;;;;;;;;5019715;28;20279;-72
2021/08/09 08:14:42;;;;;;;12.85;3.05;;;;;;;;;;5010780;28;20206;-72
2021/08/09 08:17:07;;;;;;;8.13;2.72;;;;;;;;;;5021096;28;20178;-72
2021/08/09 08:19:33;;;;;;;11.55;2.53;;;;;;;;;;5020248;28;20185;-72
2021/08/09 08:21:58;;;;;;;7.22;2.40;;;;;;;;;;5016300;28;20633;-71
2021/08/09 08:24:23;;;;;;;10.48;2.67;;;;;;;;;;5019518;28;20194;-73
2021/08/09 08:26:49;;;;;;;6.78;2.40;;;;;;;;;;5012260;28;20313;-71
2021/08/09 08:29:14;;;;;;;6.63;2.35;;;;;;;;;;5020126;28;20732;-71
2021/08/09 08:31:42;;;;;;;8.02;2.50;;;;;;;;;;5013625;28;20625;-71
2021/08/09 08:34:08;;;;;;;5.85;2.20;;;;;;;;;;5049255;28;20636;-71
2021/08/09 08:36:33;;;;;;;6.78;2.50;;;;;;;;;;5015456;28;20226;-70
2021/08/09 08:38:58;;;;;;;11.25;2.60;;;;;;;;;;5018678;28;20190;-71
2021/08/09 08:41:23;;;;;;;9.88;2.83;;;;;;;;;;5015407;28;20217;-71
2021/08/09 08:43:50;;;;;;;8.23;2.13;;;;;;;;;;5019663;28;20676;-72
2021/08/09 08:46:15;;;;;;;5.38;2.35;;;;;;;;;;5021995;28;20710;-72
2021/08/09 08:48:41;;;;;;;6.47;2.13;;;;;;;;;;5014145;28;20182;-72
2021/08/09 08:51:06;;;;;;;8.38;2.50;;;;;;;;;;5022731;28;20185;-71
2021/08/09 08:53:35;;;;;;;5.95;2.20;;;;;;;;;;5009001;28;20209;-71
2021/08/09 08:56:04;;;;;;;11.27;2.17;;;;;;;;;;5024315;28;20280;-73
2021/08/09 08:58:29;;;;;;;11.68;2.92;;;;;;;;;;5014678;28;20573;-73
2021/08/09 09:00:54;;;;;;;6.03;2.65;;;;;;;;;;5022879;28;20218;-70
2021/08/09 09:03:26;;;;;;;9.95;2.53;;;;;;;;;;5015894;28;20280;-71
2021/08/09 09:05:57;;;;;;;5.97;2.30;;;;;;;;;;5021928;28;20233;-72
2021/08/09 09:08:44;;;;;;;7.90;1.98;;;;;;;;;;5014913;28;20190;-72
2021/08/09 09:11:34;;;;;;;6.18;1.95;;;;;;;;;;5021399;28;20534;-73
2021/08/09 09:14:02;;;;;;;6.78;2.17;;;;;;;;;;5012474;28;20190;-72
2021/08/09 09:16:47;;;;;;;6.30;2.42;;;;;;;;;;5020541;28;20584;-74
2021/08/09 09:19:34;;;;;;;7.05;1.88;;;;;;;;;;5009251;28;20625;-68
2021/08/09 09:22:01;;;;;;;5.85;2.05;;;;;;;;;;5023019;28;20218;-73
2021/08/09 09:24:27;;;;;;;5.65;2.22;;;;;;;;;;5019942;28;20664;-73
2021/08/09 09:26:56;;;;;;;7.10;2.05;;;;;;;;;;5021903;28;20233;-70
2021/08/09 09:29:23;;;;;;;7.82;1.83;;;;;;;;;;5013437;28;20281;-70
2021/08/09 09:31:50;;;;;;;12.05;1.92;;;;;;;;;;5025328;28;20190;-70
2021/08/09 09:34:17;;;;;;;5.57;2.28;;;;;;;;;;5017425;28;20194;-69
2021/08/09 09:36:52;;;;;;;7.07;2.40;;;;;;;;;;5027871;28;20189;-71
2021/08/09 09:39:38;;;;;;;6.88;1.70;;;;;;;;;;5020371;28;20196;-71
2021/08/09 09:42:11;;;;;;;5.50;1.88;;;;;;;;;;5023033;28;20214;-72
2021/08/09 09:44:42;;;;;;;5.88;2.20;;;;;;;;;;5017699;28;20248;-70
2021/08/09 09:47:20;;;;;;;4.55;1.75;;;;;;;;;;5023316;28;20553;-72
2021/08/09 09:49:59;;;;;;;8.50;1.85;;;;;;;;;;5008833;28;20196;-69
2021/08/09 09:52:47;;;;;;;6.30;1.90;;;;;;;;;;5025325;28;20210;-72
2021/08/09 09:55:15;;;;;;;6.82;1.70;;;;;;;;;;5016422;28;20194;-72
2021/08/09 09:57:42;;;;;;;5.13;2.10;;;;;;;;;;5026542;28;20260;-68
2021/08/09 10:00:11;;;;;;;5.55;2.13;;;;;;;;;;5016931;28;20229;-72
2021/08/09 10:02:39;;;;;;;6.28;2.10;;;;;;;;;;5027013;28;20225;-68
2021/08/09 10:05:05;;;;;;;8.80;2.40;;;;;;;;;;5019775;28;20201;-70
2021/08/09 10:07:36;;;;;;;7.63;2.22;;;;;;;;;;5016557;28;20221;-70
2021/08/09 10:10:04;;;;;;;5.75;1.95;;;;;;;;;;5023752;28;20186;-69
2021/08/09 10:12:31;;;;;;;7.53;2.45;;;;;;;;;;5017263;28;20192;-69
2021/08/09 10:14:58;;;;;;;4.82;1.88;;;;;;;;;;5024396;28;20783;-69
2021/08/09 10:17:25;;;;;;;6.75;2.10;;;;;;;;;;5017109;28;20228;-70
2021/08/09 10:19:53;;;;;;;6.75;2.33;;;;;;;;;;5023351;28;20200;-70
2021/08/09 10:22:20;;;;;;;5.95;2.00;;;;;;;;;;5014173;28;20297;-70
2021/08/09 10:24:46;;;;;;;5.10;1.98;;;;;;;;;;5016520;28;20314;-71
2021/08/09 10:27:12;;;;;;;5.63;2.20;;;;;;;;;;5013884;28;20247;-70
2021/08/09 10:30:09;;;;;;;4.18;1.70;;;;;;;;;;5017783;28;20636;-70
2021/08/09 10:32:45;;;;;;;6.78;2.15;;;;;;;;;;5009744;28;20217;-71
2021/08/09 10:35:51;;;;;;;4.82;1.52;;;;;;;;;;5017478;28;20271;-70
2021/08/09 10:38:22;;;;;;;7.22;1.70;;;;;;;;;;5004897;28;20198;-70
2021/08/09 10:41:00;;;;;;;6.55;2.05;;;;;;;;;;5019855;28;20196;-72
2021/08/09 10:43:25;;;;;;;7.20;1.90;;;;;;;;;;5013832;28;20687;-71
2021/08/09 10:45:50;;;;;;;6.35;1.90;;;;;;;;;;5022745;28;20186;-71
2021/08/09 10:48:46;;;;;;;8.18;1.90;;;;;;;;;;5010122;28;20226;-71
2021/08/09 10:51:11;;;;;;;6.88;1.60;;;;;;;;;;5027709;28;20178;-70
2021/08/09 10:53:39;;;;;;;7.07;1.98;;;;;;;;;;5013729;28;20240;-73
2021/08/09 10:56:04;;;;;;;6.03;1.90;;;;;;;;;;5020474;28;20225;-71
2021/08/09 10:58:41;;;;;;;6.07;1.80;;;;;;;;;;5018303;28;20226;-71
2021/08/09 11:01:17;;;;;;;5.60;1.90;;;;;;;;;;5022927;28;20954;-70
2021/08/09 11:04:01;;;;;;;7.15;1.73;;;;;;;;;;5018202;28;20561;-71
2021/08/09 11:06:52;;;;;;;4.90;1.60;;;;;;;;;;5027450;28;20579;-71
2021/08/09 11:09:29;;;;;;;5.88;1.80;;;;;;;;;;5008423;28;20244;-71
2021/08/09 11:12:11;;;;;;;5.50;2.15;;;;;;;;;;5023349;28;20239;-72
2021/08/09 11:15:10;;;;;;;6.50;1.70;;;;;;;;;;5016308;28;20186;-70
2021/08/09 11:17:39;;;;;;;5.15;1.95;;;;;;;;;;5021873;28;21332;-70
2021/08/09 11:20:23;;;;;;;6.18;2.00;;;;;;;;;;5005919;28;20194;-72
2021/08/09 11:23:00;;;;;;;5.78;1.98;;;;;;;;;;5022777;28;21059;-72
2021/08/09 11:25:46;;;;;;;6.80;2.05;;;;;;;;;;5016157;28;20190;-70
2021/08/09 11:28:18;;;;;;;4.10;2.00;;;;;;;;;;5021759;28;20273;-68
2021/08/09 11:30:45;;;;;;;4.35;2.28;;;;;;;;;;5016660;28;20226;-72
2021/08/09 11:33:25;;;;;;;4.03;1.90;;;;;;;;;;5020972;28;20190;-69
2021/08/09 11:35:51;;;;;;;4.82;1.95;;;;;;;;;;5015287;28;20658;-69
2021/08/09 11:38:17;;;;;;;5.57;2.25;;;;;;;;;;5018839;28;20201;-72
2021/08/09 11:40:46;;;;;;;6.95;2.55;;;;;;;;;;5019207;28;20267;-70
2021/08/09 11:43:28;;;;;;;5.80;2.25;;;;;;;;;;5022499;28;20190;-70
2021/08/09 11:45:55;;;;;;;6.38;2.33;;;;;;;;;;5016813;28;20182;-71
2021/08/09 11:48:30;;;;;;;5.70;2.10;;;;;;;;;;5019716;28;20187;-70
2021/08/09 11:51:02;;;;;;;5.07;1.95;;;;;;;;;;5017309;28;20710;-70
2021/08/09 11:53:28;;;;;;;4.65;1.63;;;;;;;;;;5021822;28;20558;-70
2021/08/09 11:56:35;;;;;;;6.20;1.77;;;;;;;;;;5015886;28;20189;-71
2021/08/09 11:59:15;;;;;;;6.13;1.60;;;;;;;;;;5025449;28;20640;-69
2021/08/09 12:01:45;;;;;;;5.95;1.83;;;;;;;;;;5012787;28;20213;-71
2021/08/09 12:04:13;;;;;;;6.20;1.98;;;;;;;;;;5024366;28;20583;-70
2021/08/09 12:06:52;;;;;;;4.53;1.90;;;;;;;;;;5014132;28;21195;-71
2021/08/09 12:09:23;;;;;;;7.75;2.10;;;;;;;;;;5020404;28;20208;-70
2021/08/09 12:11:57;;;;;;;7.72;1.90;;;;;;;;;;5011055;28;20700;-69
2021/08/09 12:14:23;;;;;;;3.50;1.55;;;;;;;;;;5025386;28;20190;-70
2021/08/09 12:16:52;;;;;;;5.00;1.80;;;;;;;;;;5013057;28;20201;-71
2021/08/09 12:19:37;;;;;;;7.03;2.20;;;;;;;;;;5018793;28;20266;-69
2021/08/09 12:22:18;;;;;;;6.47;2.08;;;;;;;;;;5011263;28;20241;-74
2021/08/09 12:25:03;;;;;;;4.63;1.92;;;;;;;;;;5022239;28;20637;-72
2021/08/09 12:27:29;;;;;;;6.65;1.90;;;;;;;;;;5014770;28;20186;-71
2021/08/09 12:30:10;;;;;;;4.38;1.83;;;;;;;;;;5016890;28;20217;-72
2021/08/09 12:32:41;;;;;;;4.55;1.58;;;;;;;;;;5005713;28;20498;-71
2021/08/09 12:35:10;;;;;;;7.40;1.77;;;;;;;;;;5021344;28;20322;-71
2021/08/09 12:37:36;;;;;;;4.43;1.55;;;;;;;;;;5022487;28;20190;-70
2021/08/09 12:40:12;;;;;;;5.93;1.58;;;;;;;;;;5008297;28;20190;-73
2021/08/09 12:42:39;;;;;;;4.32;1.80;;;;;;;;;;5027946;28;20304;-69
2021/08/09 12:45:05;;;;;;;4.15;1.85;;;;;;;;;;5014819;28;20205;-72
2021/08/09 12:47:31;;;;;;;5.20;1.60;;;;;;;;;;5025659;28;20621;-72
2021/08/09 12:49:57;;;;;;;6.18;1.70;;;;;;;;;;5017200;28;20185;-72
2021/08/09 12:52:22;;;;;;;4.00;1.50;;;;;;;;;;5018890;28;20257;-72
2021/08/09 12:54:47;;;;;;;6.07;1.63;;;;;;;;;;5015325;28;20186;-72
2021/08/09 12:57:13;;;;;;;4.70;1.92;;;;;;;;;;5029386;28;20528;-73
2021/08/09 12:59:38;;;;;;;4.53;1.90;;;;;;;;;;5012033;28;20218;-72
2021/08/09 13:02:04;;;;;;;4.25;1.80;;;;;;;;;;5033309;28;20549;-73
2021/08/09 13:04:29;;;;;;;3.90;1.50;;;;;;;;;;5021315;28;20185;-73
2021/08/09 13:06:57;;;;;;;3.50;1.38;;;;;;;;;;5029266;28;20243;-73
2021/08/09 13:09:22;;;;;;;3.03;1.60;;;;;;;;;;5018067;28;20215;-72
2021/08/09 13:11:48;;;;;;;3.45;1.50;;;;;;;;;;5031100;28;20183;-70
2021/08/09 13:14:13;;;;;;;4.50;1.40;;;;;;;;;;5021206;28;20194;-71
2021/08/09 13:16:38;;;;;;;4.75;1.75;;;;;;;;;;5025730;28;20277;-71
2021/08/09 13:19:04;;;;;;;5.28;1.88;;;;;;;;;;5025792;28;20347;-73
2021/08/09 13:21:29;;;;;;;5.50;2.10;;;;;;;;;;5017442;28;20213;-73
2021/08/09 13:23:56;;;;;;;3.47;1.50;;;;;;;;;;5028584;28;20227;-72
2021/08/09 13:26:21;;;;;;;2.95;1.50;;;;;;;;;;5019267;28;20194;-74
2021/08/09 13:28:47;;;;;;;4.97;1.60;;;;;;;;;;5024861;28;20255;-69
2021/08/09 13:31:12;;;;;;;3.88;1.63;;;;;;;;;;5021973;28;20261;-73
2021/08/09 13:33:38;;;;;;;5.40;1.80;;;;;;;;;;5027654;28;20196;-74
2021/08/09 13:36:03;;;;;;;4.78;1.60;;;;;;;;;;5014794;28;20186;-72
2021/08/09 13:38:31;;;;;;;6.22;1.80;;;;;;;;;;5025024;28;20189;-73
2021/08/09 13:40:56;;;;;;;4.93;2.00;;;;;;;;;;5022105;28;20178;-70
2021/08/09 13:43:22;;;;;;;6.85;1.75;;;;;;;;;;5029770;28;20207;-71
2021/08/09 13:45:48;;;;;;;3.45;1.30;;;;;;;;;;5029128;28;20174;-72
2021/08/09 13:48:13;;;;;;;5.47;1.60;;;;;;;;;;5020632;28;20785;-73
2021/08/09 13:50:39;;;;;;;5.70;1.83;;;;;;;;;;5023896;28;20233;-70
2021/08/09 13:53:04;;;;;;;3.83;1.40;;;;;;;;;;5011981;28;20178;-70
2021/08/09 13:55:29;;;;;;;4.75;1.50;;;;;;;;;;5029572;28;20190;-70
2021/08/09 13:57:54;;;;;;;2.25;1.20;;;;;;;;;;5016683;28;20189;-72
2021/08/09 14:00:20;;;;;;;6.10;1.60;;;;;;;;;;5026417;28;20260;-71
2021/08/09 14:02:45;;;;;;;5.93;1.33;;;;;;;;;;5013960;28;20206;-73
2021/08/09 14:05:12;;;;;;;3.47;1.38;;;;;;;;;;5027001;28;20189;-70
2021/08/09 14:07:38;;;;;;;5.03;1.33;;;;;;;;;;5014117;28;20189;-71
2021/08/09 14:10:09;;;;;;;3.45;1.30;;;;;;;;;;5030669;28;20185;-74
2021/08/09 14:12:37;;;;;;;5.40;1.40;;;;;;;;;;5016432;28;20187;-70
2021/08/09 14:15:04;;;;;;;3.85;1.33;;;;;;;;;;5026437;28;20192;-72
2021/08/09 14:17:30;;;;;;;5.88;1.67;;;;;;;;;;5027548;28;20701;-73
2021/08/09 14:19:55;;;;;;;6.18;1.50;;;;;;;;;;5019226;28;20278;-72
2021/08/09 14:22:20;;;;;;;5.15;1.50;;;;;;;;;;5021994;28;20206;-71
2021/08/09 14:24:46;;;;;;;5.32;1.48;;;;;;;;;;5020629;28;20216;-72
2021/08/09 14:27:11;;;;;;;10.70;1.30;;;;;;;;;;5026558;28;20186;-70
2021/08/09 14:29:37;;;;;;;2.15;1.17;;;;;;;;;;5017678;28;20191;-72
2021/08/09 14:32:03;;;;;;;5.57;1.40;;;;;;;;;;5023063;28;20189;-71
2021/08/09 14:34:29;;;;;;;4.10;1.30;;;;;;;;;;5018363;28;20598;-71
2021/08/09 14:36:54;;;;;;;3.85;1.35;;;;;;;;;;5020710;28;20213;-70
2021/08/09 14:39:19;;;;;;;4.40;1.10;;;;;;;;;;5018504;28;20273;-72
2021/08/09 14:41:45;;;;;;;3.85;1.70;;;;;;;;;;5021372;28;20213;-70